Time;durP1;ratioP1;P1;durP2;ratioP2;P2;SDS_P1;SDS_P2;PMS_P1;PMS_P2;Temp;Humidity;BMP_temperature;BMP_pressure;BME280_temperature;BME280_humidity;BME280_pressure;Samples;Min_cycle;Max_cycle;Signal;HPM_P1;HPM_P2
2021/03/09 00:01:33;;;;;;;56.67;33.20;;;;;;;5.33;55.71;101608.38;5075599;28;20343;-62
2021/03/09 00:04:02;;;;;;;62.28;32.88;;;;;;;5.01;56.88;101612.91;5094376;28;20772;-64
2021/03/09 00:06:29;;;;;;;57.33;33.45;;;;;;;4.83;57.53;101605.06;5093730;28;20500;-67
2021/03/09 00:08:56;;;;;;;61.60;32.90;;;;;;;4.96;57.37;101604.66;5093620;28;20047;-70
2021/03/09 00:11:23;;;;;;;59.95;34.58;;;;;;;5.11;57.10;101600.19;5093957;28;20505;-65
2021/03/09 00:13:50;;;;;;;58.20;33.35;;;;;;;4.92;57.13;101609.81;5093310;28;20044;-73
2021/03/09 00:16:17;;;;;;;59.92;32.97;;;;;;;5.10;57.42;101604.03;5093669;28;20158;-71
2021/03/09 00:18:44;;;;;;;55.20;33.17;;;;;;;5.29;56.75;101608.06;5093886;28;20114;-67
2021/03/09 00:21:14;;;;;;;57.90;33.88;;;;;;;5.25;56.77;101604.19;5074463;28;20059;-69
2021/03/09 00:23:41;;;;;;;58.08;32.95;;;;;;;5.48;56.41;101605.78;5093982;28;20059;-69
2021/03/09 00:26:08;;;;;;;61.03;33.35;;;;;;;5.18;56.58;101595.38;5093504;28;20044;-66
2021/03/09 00:28:39;;;;;;;57.38;33.35;;;;;;;5.05;57.36;101603.13;5091447;28;20048;-67
2021/03/09 00:31:06;;;;;;;58.97;34.72;;;;;;;5.25;56.90;101597.88;5093730;28;20063;-69
2021/03/09 00:33:33;;;;;;;66.35;32.30;;;;;;;5.16;56.88;101604.91;5091984;28;20052;-69
2021/03/09 00:40:23;;;;;;;58.92;33.30;;;;;;;4.59;58.18;101602.56;5075636;28;20425;-70
2021/03/09 00:42:53;;;;;;;57.63;32.03;;;;;;;4.34;59.29;101609.56;5076112;28;20066;-72
2021/03/09 00:45:23;;;;;;;62.90;34.50;;;;;;;4.55;58.61;101611.50;5076209;28;20497;-65
2021/03/09 00:48:01;;;;;;;55.55;32.13;;;;;;;4.31;59.32;101615.50;5093256;28;20052;-71
2021/03/09 00:50:28;;;;;;;63.38;33.40;;;;;;;4.04;60.19;101611.84;5093636;28;20056;-70
2021/03/09 00:52:58;;;;;;;60.17;33.05;;;;;;;3.89;60.86;101615.13;5092600;28;20055;-69
2021/03/09 00:55:25;;;;;;;60.50;33.58;;;;;;;3.97;60.91;101606.56;5092742;28;20485;-71
2021/03/09 00:58:00;;;;;;;61.70;33.47;;;;;;;4.01;60.87;101610.41;5093083;28;20047;-66
2021/03/09 01:00:28;;;;;;;63.38;34.47;;;;;;;4.19;60.51;101607.44;5093006;28;20051;-68
2021/03/09 01:02:55;;;;;;;57.53;33.78;;;;;;;4.09;60.67;101614.63;5092839;28;20048;-68
2021/03/09 01:05:23;;;;;;;61.55;33.08;;;;;;;4.19;60.67;101614.78;5092757;28;20048;-66
2021/03/09 01:07:50;;;;;;;61.05;34.35;;;;;;;4.36;60.41;101612.84;5093450;28;20040;-67
2021/03/09 01:10:21;;;;;;;61.08;35.13;;;;;;;4.20;60.27;101613.72;5092537;28;20044;-69
2021/03/09 01:12:49;;;;;;;61.20;35.33;;;;;;;4.55;60.44;101612.31;5093116;28;20044;-64
2021/03/09 01:15:19;;;;;;;60.50;35.03;;;;;;;4.35;60.28;101614.78;5075528;28;20499;-69
2021/03/09 01:17:46;;;;;;;60.47;33.78;;;;;;;4.15;60.70;101617.19;5075529;28;20059;-63
2021/03/09 01:20:23;;;;;;;56.45;32.25;;;;;;;4.25;60.49;101621.97;5093112;28;20052;-68
2021/03/09 01:22:51;;;;;;;59.97;33.35;;;;;;;4.03;60.67;101621.91;5092589;28;20044;-69
2021/03/09 01:25:20;;;;;;;;;;;;;;;4.24;60.66;101618.41;5093408;28;20548;-63
2021/03/09 01:27:50;;;;;;;65.53;34.03;;;;;;;3.97;61.35;101624.81;5092859;28;19920;-63
2021/03/09 01:30:19;;;;;;;59.28;32.33;;;;;;;3.92;61.71;101628.28;5074858;28;20059;-67
2021/03/09 01:32:48;;;;;;;63.88;34.38;;;;;;;3.85;61.50;101624.06;5092371;28;20052;-64
2021/03/09 01:35:16;;;;;;;60.40;33.72;;;;;;;3.94;61.40;101617.94;5092340;28;20060;-65
2021/03/09 01:37:43;;;;;;;60.92;33.90;;;;;;;3.93;61.18;101613.56;5092949;28;20040;-60
2021/03/09 01:40:11;;;;;;;55.53;32.25;;;;;;;3.78;61.85;101626.13;5091819;28;20048;-61
2021/03/09 01:42:43;;;;;;;62.35;34.88;;;;;;;3.82;61.97;101627.28;5075888;28;20040;-64
2021/03/09 01:45:11;;;;;;;63.00;35.10;;;;;;;3.81;62.43;101612.81;5089880;28;20055;-68
2021/03/09 01:47:43;;;;;;;61.30;34.00;;;;;;;4.30;61.47;101619.31;5092730;28;20044;-63
2021/03/09 01:50:11;;;;;;;60.88;33.63;;;;;;;4.44;60.51;101620.63;5091937;28;20056;-68
2021/03/09 01:57:18;;;;;;;60.75;34.03;;;;;;;3.99;61.67;101615.28;5091148;28;20059;-63
2021/03/09 01:59:46;;;;;;;60.85;33.53;;;;;;;4.28;60.75;101614.13;5092257;28;20055;-64
2021/03/09 02:02:13;;;;;;;55.03;32.17;;;;;;;4.42;60.47;101614.59;5091519;28;20048;-62
2021/03/09 02:04:42;;;;;;;60.28;34.63;;;;;;;4.66;60.68;101609.72;5089239;28;20052;-61
2021/03/09 02:07:08;;;;;;;55.30;32.10;;;;;;;4.70;60.00;101608.16;5074233;28;20075;-61
2021/03/09 02:09:38;;;;;;;;;;;;;;;4.29;60.33;101604.84;5071106;28;20052;-66
2021/03/09 02:12:37;;;;;;;60.17;33.25;;;;;;;4.17;61.96;101598.69;5075405;28;19920;-62
2021/03/09 02:15:10;;;;;;;63.05;33.17;;;;;;;4.05;62.47;101592.50;5074354;28;20067;-61
2021/03/09 02:17:44;;;;;;;62.55;34.28;;;;;;;4.30;60.74;101595.63;5092286;28;20036;-64
2021/03/09 02:20:47;;;;;;;58.60;33.58;;;;;;;4.37;60.25;101589.97;5091658;28;20055;-61
2021/03/09 02:23:25;;;;;;;59.00;32.53;;;;;;;4.71;60.23;101582.53;5029245;28;20169;-64
2021/03/09 02:26:23;;;;;;;55.80;32.53;;;;;;;4.42;60.33;101581.88;5029753;28;20061;-65
2021/03/09 02:29:15;;;;;;;58.33;35.15;;;;;;;4.04;61.77;101581.84;5029708;28;20052;-63
2021/03/09 02:31:44;;;;;;;58.92;33.42;;;;;;;3.80;62.41;101575.72;5012911;28;20053;-62
2021/03/09 02:34:26;;;;;;;56.88;33.63;;;;;;;3.83;62.56;101571.69;5029169;28;20158;-65
2021/03/09 02:41:30;;;;;;;59.15;33.10;;;;;;;3.72;63.28;101575.31;5027396;28;20053;-70
2021/03/09 02:43:58;;;;;;;59.10;33.92;;;;;;;3.99;62.68;101566.22;5013935;28;20147;-70
2021/03/09 02:46:27;;;;;;;60.15;33.20;;;;;;;4.11;62.23;101569.72;5010400;28;20058;-70
2021/03/09 02:48:54;;;;;;;61.80;34.47;;;;;;;4.09;62.06;101563.69;5013370;28;20177;-64
2021/03/09 02:56:04;;;;;;;68.18;33.75;;;;;;;3.74;63.75;101562.28;5030672;28;20073;-65
2021/03/09 02:58:31;;;;;;;63.85;33.60;;;;;;;3.83;63.76;101575.25;5015393;28;20056;-72
2021/03/09 03:00:59;;;;;;;59.67;33.55;;;;;;;3.83;64.34;101569.81;5075790;28;20051;-64
2021/03/09 03:03:28;;;;;;;61.67;34.30;;;;;;;3.96;63.19;101564.00;5074605;28;20044;-68
2021/03/09 03:06:03;;;;;;;62.83;34.22;;;;;;;3.94;63.11;101562.63;5092696;28;20044;-69
2021/03/09 03:13:10;;;;;;;69.82;33.80;;;;;;;3.72;63.83;101557.09;5092298;28;20451;-71
2021/03/09 03:15:38;;;;;;;62.42;34.22;;;;;;;3.99;63.38;101551.78;5073831;28;20040;-66
2021/03/09 03:18:25;;;;;;;61.97;33.00;;;;;;;3.92;63.26;101542.97;5083563;28;20466;-69
2021/03/09 03:20:52;;;;;;;57.55;32.92;;;;;;;3.96;63.12;101546.81;5091776;28;20052;-69
2021/03/09 03:23:22;;;;;;;59.13;34.05;;;;;;;3.99;63.18;101549.88;5095861;28;20055;-71
2021/03/09 03:25:54;;;;;;;62.47;33.70;;;;;;;3.97;63.28;101548.50;5095608;28;20073;-69
2021/03/09 03:28:22;;;;;;;64.35;32.92;;;;;;;4.19;62.50;101547.47;5077573;28;20054;-71
2021/03/09 03:30:50;;;;;;;61.22;33.63;;;;;;;4.03;63.01;101548.31;5089843;28;20052;-69
2021/03/09 03:33:17;;;;;;;56.30;33.33;;;;;;;4.10;63.00;101548.97;5094066;28;20059;-68
2021/03/09 03:35:47;;;;;;;;;;;;;;;4.03;63.19;101547.47;5078461;28;20044;-68
2021/03/09 03:38:15;;;;;;;60.50;31.73;;;;;;;4.10;63.13;101546.22;5095260;28;19920;-66
2021/03/09 03:40:43;;;;;;;59.28;31.92;;;;;;;4.07;63.25;101537.72;5093934;28;20048;-69
2021/03/09 03:43:10;;;;;;;58.13;32.80;;;;;;;4.03;63.22;101539.28;5095195;28;20052;-68
2021/03/09 03:45:37;;;;;;;57.78;32.67;;;;;;;4.01;63.54;101533.28;5076350;28;20051;-64
2021/03/09 03:48:04;;;;;;;55.55;32.22;;;;;;;4.10;62.83;101527.16;5076551;28;20380;-64
2021/03/09 03:50:32;;;;;;;60.88;34.03;;;;;;;4.06;63.05;101530.63;5089981;28;20395;-69
2021/03/09 03:53:20;;;;;;;57.72;32.13;;;;;;;4.04;63.17;101527.34;5072273;28;20052;-70
2021/03/09 03:55:54;;;;;;;61.63;32.78;;;;;;;3.96;63.77;101523.13;5076844;28;20067;-67
2021/03/09 03:58:50;;;;;;;58.28;32.22;;;;;;;4.03;63.47;101528.38;5074965;28;20055;-68
2021/03/09 04:01:20;;;;;;;59.58;31.90;;;;;;;3.80;63.68;101531.34;5032204;28;20145;-68
2021/03/09 04:03:51;;;;;;;60.60;31.55;;;;;;;3.78;64.47;101528.88;4998922;28;20396;-66
2021/03/09 04:06:23;;;;;;;59.45;32.72;;;;;;;3.84;64.57;101532.47;5015359;28;20496;-68
2021/03/09 04:08:50;;;;;;;61.42;33.90;;;;;;;3.76;64.70;101531.00;5014884;28;20068;-66
2021/03/09 04:11:17;;;;;;;59.70;32.35;;;;;;;3.76;65.36;101536.47;5032246;28;20072;-71
2021/03/09 04:13:44;;;;;;;66.47;33.30;;;;;;;3.50;65.21;101539.00;5031881;28;20072;-68
2021/03/09 04:16:15;;;;;;;66.75;32.63;;;;;;;3.53;65.67;101539.34;5016127;28;20052;-66
2021/03/09 04:18:43;;;;;;;56.53;31.40;;;;;;;3.27;66.74;101542.69;5015161;28;20049;-69
2021/03/09 04:21:10;;;;;;;63.88;31.73;;;;;;;3.21;67.29;101544.50;5027157;28;20046;-63
2021/03/09 04:23:40;;;;;;;62.83;31.80;;;;;;;3.53;67.49;101541.22;4999444;28;20049;-68
2021/03/09 04:26:07;;;;;;;60.00;31.80;;;;;;;3.88;65.43;101539.06;5030995;28;20396;-68
2021/03/09 04:28:34;;;;;;;61.35;31.98;;;;;;;3.90;65.14;101540.50;5030698;28;20053;-68
2021/03/09 04:31:02;;;;;;;59.30;32.00;;;;;;;3.75;67.25;101540.25;5048199;28;20057;-68
2021/03/09 04:33:31;;;;;;;65.55;33.03;;;;;;;3.43;66.29;101541.91;5015513;28;20065;-67
2021/03/09 04:35:59;;;;;;;57.33;30.88;;;;;;;3.36;67.37;101555.66;5031923;28;20049;-71
2021/03/09 04:38:27;;;;;;;60.80;31.25;;;;;;;3.29;67.67;101560.44;5054804;28;20399;-70
2021/03/09 04:40:54;;;;;;;64.75;32.63;;;;;;;3.24;67.83;101554.09;5055528;28;20052;-67
2021/03/09 04:43:21;;;;;;;59.92;32.45;;;;;;;3.31;67.97;101557.47;5055797;28;20052;-69
2021/03/09 04:45:49;;;;;;;57.88;30.23;;;;;;;3.57;66.97;101556.84;5066499;28;20044;-69
2021/03/09 04:48:16;;;;;;;59.60;32.22;;;;;;;3.62;66.63;101546.03;5073246;28;20057;-71
2021/03/09 04:51:03;;;;;;;58.13;30.52;;;;;;;3.90;65.76;101553.28;5073358;28;20052;-63
2021/03/09 04:53:30;;;;;;;58.58;31.13;;;;;;;3.96;66.29;101547.66;5056034;28;20057;-65
2021/03/09 04:55:58;;;;;;;56.88;32.35;;;;;;;4.05;65.44;101551.63;5073245;28;20051;-70
2021/03/09 04:58:26;;;;;;;59.47;31.60;;;;;;;3.88;65.81;101545.34;5055288;28;20040;-60
2021/03/09 05:00:54;;;;;;;60.65;32.50;;;;;;;3.84;66.02;101543.38;5073099;28;20052;-63
2021/03/09 05:03:25;;;;;;;60.72;31.35;;;;;;;3.83;65.34;101545.28;5055651;28;20048;-67
2021/03/09 05:05:53;;;;;;;64.07;32.15;;;;;;;3.68;65.83;101547.75;5073714;28;20056;-71
2021/03/09 05:08:25;;;;;;;63.25;32.05;;;;;;;3.55;66.84;101549.97;5073176;28;20139;-65
2021/03/09 05:15:19;;;;;;;62.33;30.73;;;;;;;3.49;66.97;101561.88;5073521;28;20479;-69
2021/03/09 05:18:03;;;;;;;66.68;31.98;;;;;;;3.82;66.38;101561.88;5073928;28;20052;-69
2021/03/09 05:20:31;;;;;;;60.83;31.05;;;;;;;3.77;66.13;101559.06;5064522;28;20478;-65
2021/03/09 05:22:58;;;;;;;64.10;33.17;;;;;;;3.41;67.34;101563.94;5093019;28;20051;-68
2021/03/09 05:25:25;;;;;;;60.90;31.33;;;;;;;3.55;67.18;101561.72;5093100;28;20059;-67
2021/03/09 05:27:53;;;;;;;58.25;30.63;;;;;;;3.88;66.30;101566.31;5092573;28;20418;-69
2021/03/09 05:30:21;;;;;;;56.97;30.50;;;;;;;4.16;65.70;101568.94;5057394;28;20055;-70
2021/03/09 05:32:50;;;;;;;60.92;32.35;;;;;;;4.13;64.87;101570.25;5092265;28;20055;-66
2021/03/09 05:35:17;;;;;;;61.58;29.33;;;;;;;3.89;65.70;101570.72;5074645;28;20044;-67
2021/03/09 05:37:45;;;;;;;60.15;31.33;;;;;;;3.88;66.06;101572.63;5074453;28;20048;-65
2021/03/09 05:40:16;;;;;;;57.58;30.33;;;;;;;3.92;65.93;101562.03;5091914;28;20055;-70
2021/03/09 05:42:50;;;;;;;59.03;29.80;;;;;;;4.05;65.59;101562.50;5092757;28;20062;-64
2021/03/09 05:45:24;;;;;;;59.15;31.55;;;;;;;4.05;65.28;101561.69;5087705;28;20052;-63
2021/03/09 05:47:51;;;;;;;61.60;30.77;;;;;;;3.82;66.05;101562.69;5092548;28;20051;-70
2021/03/09 05:50:19;;;;;;;60.08;32.08;;;;;;;4.05;65.60;101565.25;5092307;28;20047;-69
2021/03/09 05:52:46;;;;;;;58.97;30.17;;;;;;;4.01;65.67;101566.81;5092037;28;20052;-65
2021/03/09 05:55:13;;;;;;;62.75;31.17;;;;;;;3.91;66.21;101563.09;5073893;28;20055;-70
2021/03/09 05:57:40;;;;;;;58.65;29.98;;;;;;;3.99;65.88;101568.94;5092113;28;20048;-67
2021/03/09 06:00:09;;;;;;;56.80;30.27;;;;;;;3.93;66.26;101566.41;5092293;28;20051;-64
2021/03/09 06:02:45;;;;;;;60.78;31.17;;;;;;;4.10;65.82;101569.94;5074688;28;20055;-72
2021/03/09 06:05:22;;;;;;;60.88;29.75;;;;;;;3.84;65.83;101574.19;5091867;28;20059;-69
2021/03/09 06:07:53;;;;;;;61.00;31.85;;;;;;;3.82;66.48;101578.25;5091866;28;20371;-65
2021/03/09 06:10:38;;;;;;;60.10;31.80;;;;;;;4.11;65.59;101579.78;5099276;28;20055;-71
2021/03/09 06:13:08;;;;;;;61.47;31.25;;;;;;;3.86;66.45;101585.66;5091251;28;20048;-72
2021/03/09 06:15:53;;;;;;;61.45;30.30;;;;;;;3.94;66.17;101585.22;5073581;28;20074;-69
2021/03/09 06:18:26;;;;;;;62.88;30.73;;;;;;;3.70;66.95;101582.91;5092313;28;20051;-73
2021/03/09 06:21:14;;;;;;;62.83;30.77;;;;;;;3.71;67.46;101588.16;5073959;28;20052;-63
2021/03/09 06:23:43;;;;;;;60.85;30.92;;;;;;;3.78;67.40;101582.53;5091401;28;20056;-65
2021/03/09 06:26:36;;;;;;;67.47;33.30;;;;;;;4.00;66.96;101588.88;5073835;28;20044;-71
2021/03/09 06:29:15;;;;;;;60.50;31.58;;;;;;;3.79;66.83;101595.91;5090324;28;20542;-73
2021/03/09 06:32:04;;;;;;;64.15;30.60;;;;;;;3.80;67.88;101588.56;5091400;28;20044;-70
2021/03/09 06:34:32;;;;;;;61.22;30.63;;;;;;;4.34;65.81;101583.13;5092034;28;20048;-71
2021/03/09 06:37:08;;;;;;;65.20;31.10;;;;;;;4.29;65.61;101588.50;5092019;28;20051;-68
2021/03/09 06:39:54;;;;;;;59.03;30.88;;;;;;;4.37;65.52;101595.44;5091011;28;20502;-69
2021/03/09 06:42:36;;;;;;;61.25;31.00;;;;;;;4.29;65.53;101596.69;5090961;28;20066;-67
2021/03/09 06:45:14;;;;;;;64.20;31.30;;;;;;;4.00;66.18;101589.69;5091512;28;20044;-65
2021/03/09 06:47:44;;;;;;;60.08;30.75;;;;;;;3.97;66.55;101592.09;5090672;28;20059;-67
2021/03/09 06:50:19;;;;;;;64.63;31.70;;;;;;;4.25;65.97;101586.53;5089390;28;20513;-68
2021/03/09 06:53:03;;;;;;;58.03;30.40;;;;;;;4.24;65.64;101588.44;5091358;28;20394;-68
2021/03/09 06:55:32;;;;;;;60.55;31.35;;;;;;;4.20;66.13;101590.00;5093762;28;20063;-68
2021/03/09 06:58:07;;;;;;;69.20;32.00;;;;;;;4.62;65.55;101590.31;5096236;28;20399;-70
2021/03/09 07:00:36;;;;;;;65.20;32.15;;;;;;;4.66;64.81;101586.00;5061687;28;20040;-64
2021/03/09 07:03:03;;;;;;;62.78;33.28;;;;;;;4.55;64.63;101595.97;5096308;28;20053;-72
2021/03/09 07:05:30;;;;;;;56.03;30.77;;;;;;;4.64;64.66;101585.44;5096055;28;20502;-66
2021/03/09 07:08:22;;;;;;;59.95;32.13;;;;;;;4.80;64.19;101591.91;5080988;28;20051;-68
2021/03/09 07:10:49;;;;;;;59.47;30.73;;;;;;;5.43;65.05;101598.38;5095694;28;20063;-70
2021/03/09 07:13:18;;;;;;;58.75;31.75;;;;;;;5.10;62.97;101597.72;5095422;28;20044;-69
2021/03/09 07:15:45;;;;;;;61.42;32.95;;;;;;;5.05;62.77;101601.25;5095523;28;20387;-71
2021/03/09 07:18:12;;;;;;;57.13;31.67;;;;;;;5.04;63.45;101598.78;5060618;28;20048;-63
2021/03/09 07:20:39;;;;;;;68.10;32.78;;;;;;;5.35;62.37;101600.75;5095642;28;20133;-70
2021/03/09 07:23:07;;;;;;;66.57;33.85;;;;;;;5.50;61.73;101603.63;5077405;28;20056;-68
2021/03/09 07:25:34;;;;;;;63.50;31.13;;;;;;;5.39;62.00;101608.16;5094471;28;20530;-65
2021/03/09 07:28:03;;;;;;;61.97;32.10;;;;;;;5.16;62.64;101613.91;5077202;28;20060;-65
2021/03/09 07:30:33;;;;;;;60.20;32.40;;;;;;;5.08;62.92;101602.63;5095114;28;20048;-65
2021/03/09 07:33:03;;;;;;;60.95;32.97;;;;;;;5.58;62.09;101612.19;5077677;28;20055;-66
2021/03/09 07:35:32;;;;;;;61.10;32.28;;;;;;;5.44;61.86;101610.94;5077595;28;20043;-66
2021/03/09 07:37:59;;;;;;;59.78;31.45;;;;;;;5.58;61.68;101614.06;5077317;28;20052;-69
2021/03/09 07:40:31;;;;;;;60.28;31.48;;;;;;;5.80;61.89;101614.84;5094791;28;20047;-66
2021/03/09 07:42:58;;;;;;;71.00;32.25;;;;;;;5.52;61.60;101615.97;5095259;28;20044;-62
2021/03/09 07:45:33;;;;;;;54.70;30.33;;;;;;;5.49;62.17;101624.66;5095002;28;20498;-65
2021/03/09 07:48:03;;;;;;;67.20;31.23;;;;;;;5.72;61.64;101624.34;5077065;28;20044;-65
2021/03/09 07:50:34;;;;;;;63.53;31.35;;;;;;;5.91;61.24;101632.19;5077697;28;20052;-70
2021/03/09 07:53:05;;;;;;;61.10;31.10;;;;;;;6.15;60.70;101619.81;5094386;28;20051;-66
2021/03/09 07:55:33;;;;;;;72.35;31.65;;;;;;;6.28;59.75;101622.91;5078511;28;20063;-60
2021/03/09 07:58:19;;;;;;;62.78;31.67;;;;;;;6.16;60.17;101621.44;5096963;28;20048;-66
2021/03/09 08:00:58;;;;;;;61.28;31.08;;;;;;;6.04;60.29;101616.19;5095681;28;20501;-61
2021/03/09 08:03:26;;;;;;;56.05;30.10;;;;;;;6.18;61.00;101616.53;5095502;28;20032;-57
2021/03/09 08:06:00;;;;;;;60.00;30.33;;;;;;;6.07;60.59;101620.28;5094645;28;20032;-72
2021/03/09 08:08:46;;;;;;;61.10;30.90;;;;;;;6.09;60.85;101620.84;5076448;28;20056;-64
2021/03/09 08:11:27;;;;;;;59.20;29.88;;;;;;;5.93;60.20;101627.31;5095582;28;20497;-66
2021/03/09 08:14:02;;;;;;;61.17;30.85;;;;;;;5.91;61.13;101622.06;5096164;28;20568;-75
2021/03/09 08:16:50;;;;;;;61.70;31.92;;;;;;;5.97;60.89;101629.25;5095681;28;20048;-68
2021/03/09 08:19:23;;;;;;;62.58;31.98;;;;;;;6.19;60.54;101624.50;5095561;28;20055;-75
2021/03/09 08:22:01;;;;;;;58.03;31.45;;;;;;;6.10;60.57;101628.78;5075694;28;20067;-70
2021/03/09 08:24:40;;;;;;;59.08;31.13;;;;;;;6.27;60.21;101629.50;5076383;28;20424;-74
2021/03/09 08:27:27;;;;;;;56.75;31.70;;;;;;;6.77;59.79;101639.91;5076024;28;20064;-70
2021/03/09 08:30:06;;;;;;;64.15;31.20;;;;;;;6.87;58.23;101633.69;5073913;28;20065;-71
2021/03/09 08:32:38;;;;;;;61.25;29.90;;;;;;;6.62;58.99;101640.66;5073209;28;20084;-69
2021/03/09 08:35:16;;;;;;;62.25;32.22;;;;;;;6.91;58.60;101635.59;5073342;28;20419;-66
2021/03/09 08:37:50;;;;;;;67.30;33.88;;;;;;;7.02;58.35;101634.56;5074179;28;20502;-66
2021/03/09 08:40:22;;;;;;;62.53;31.23;;;;;;;6.90;58.42;101639.44;5055513;28;20059;-67
2021/03/09 08:47:14;;;;;;;60.85;30.45;;;;;;;7.34;58.95;101637.16;5072372;28;20044;-73
2021/03/09 08:49:45;;;;;;;63.85;32.80;;;;;;;6.86;57.38;101624.63;5055483;28;20048;-71
2021/03/09 08:52:38;;;;;;;60.20;30.13;;;;;;;7.06;57.13;101635.66;5071204;28;20056;-73
2021/03/09 08:55:06;;;;;;;52.40;29.23;;;;;;;7.10;57.20;101625.00;5073117;28;20053;-71
2021/03/09 08:57:36;;;;;;;59.42;30.63;;;;;;;7.10;57.28;101623.09;5073294;28;20051;-76
2021/03/09 09:00:12;;;;;;;64.30;31.50;;;;;;;6.90;56.36;101620.28;5054688;28;20066;-72
2021/03/09 09:02:42;;;;;;;59.85;30.60;;;;;;;6.77;56.57;101618.00;5055448;28;20049;-71
2021/03/09 09:05:12;;;;;;;62.35;31.02;;;;;;;6.87;57.25;101623.53;5072064;28;20388;-65
2021/03/09 09:07:47;;;;;;;58.33;30.75;;;;;;;7.10;55.91;101628.56;5055061;28;20519;-73
2021/03/09 09:10:22;;;;;;;62.55;32.30;;;;;;;7.32;55.18;101631.13;5072162;28;20483;-74
2021/03/09 09:12:51;;;;;;;55.47;30.23;;;;;;;7.24;54.50;101634.34;5055088;28;20052;-71
2021/03/09 09:15:27;;;;;;;66.32;31.38;;;;;;;7.51;55.03;101640.47;5069974;28;20052;-67
2021/03/09 09:18:02;;;;;;;56.78;29.35;;;;;;;7.65;55.33;101642.41;5072085;28;20052;-72
2021/03/09 09:20:46;;;;;;;61.45;30.23;;;;;;;7.40;53.25;101639.63;5078517;28;20478;-71
2021/03/09 09:23:19;;;;;;;48.67;27.60;;;;;;;7.32;53.52;101640.13;5091232;28;20063;-72
2021/03/09 09:26:02;;;;;;;59.05;30.13;;;;;;;7.18;54.50;101633.53;5090013;28;20063;-69
2021/03/09 09:28:34;;;;;;;54.45;28.50;;;;;;;7.86;52.88;101622.16;5092610;28;20060;-70
2021/03/09 09:31:05;;;;;;;55.63;28.70;;;;;;;7.35;52.65;101631.41;5092527;28;20482;-64
2021/03/09 09:33:54;;;;;;;49.10;27.73;;;;;;;7.45;52.88;101634.16;5091319;28;20055;-70
2021/03/09 09:36:25;;;;;;;52.60;26.13;;;;;;;7.58;52.67;101630.09;5092677;28;20044;-68
2021/03/09 09:38:53;;;;;;;51.70;26.92;;;;;;;7.36;52.32;101637.69;5071759;28;20060;-67
2021/03/09 09:41:22;;;;;;;47.88;26.38;;;;;;;7.57;52.33;101628.41;5092463;28;20447;-70
2021/03/09 09:43:52;;;;;;;55.50;27.23;;;;;;;7.58;51.52;101630.09;5092299;28;20459;-69
2021/03/09 09:46:22;;;;;;;52.50;26.08;;;;;;;7.82;51.70;101633.94;5090597;28;20048;-72
2021/03/09 09:48:49;;;;;;;53.33;28.40;;;;;;;7.80;51.59;101630.66;5091250;28;20514;-70
2021/03/09 09:51:20;;;;;;;51.05;26.65;;;;;;;7.85;50.80;101631.50;5091870;28;20055;-68
2021/03/09 09:53:48;;;;;;;51.35;29.05;;;;;;;8.25;50.52;101613.38;5092365;28;20066;-72
2021/03/09 09:56:18;;;;;;;50.65;26.90;;;;;;;8.30;51.13;101616.97;5073935;28;20051;-68
2021/03/09 09:58:46;;;;;;;;;;;;;;;8.05;49.95;101619.72;5074214;28;20052;-67
2021/03/09 10:01:31;;;;;;;44.22;22.48;;;;;;;7.86;49.24;101624.09;5090988;28;19920;-68
2021/03/09 10:04:01;;;;;;;42.20;22.55;;;;;;;8.02;49.00;101621.06;5073980;28;20063;-67
2021/03/09 10:06:39;;;;;;;44.42;23.67;;;;;;;8.07;49.01;101622.16;5091572;28;20450;-72
2021/03/09 10:09:09;;;;;;;38.75;20.60;;;;;;;7.79;49.29;101620.78;5088408;28;20070;-69
2021/03/09 10:11:46;;;;;;;37.55;19.40;;;;;;;7.84;48.65;101618.06;5073667;28;20368;-65
2021/03/09 10:14:14;;;;;;;39.53;21.17;;;;;;;8.38;48.23;101612.84;5091791;28;20051;-65
2021/03/09 10:16:42;;;;;;;39.40;19.67;;;;;;;8.79;46.84;101614.38;5073659;28;20059;-66
2021/03/09 10:19:18;;;;;;;37.72;19.20;;;;;;;8.63;45.97;101619.09;5071178;28;20471;-66
2021/03/09 10:21:45;;;;;;;34.97;18.45;;;;;;;8.72;46.05;101613.84;5071254;28;20045;-63
2021/03/09 10:24:21;;;;;;;35.10;17.70;;;;;;;8.63;46.98;101621.03;5071870;28;20059;-70
2021/03/09 10:26:51;;;;;;;35.17;18.17;;;;;;;8.55;47.03;101614.19;5071958;28;20051;-62
2021/03/09 10:29:26;;;;;;;34.65;17.65;;;;;;;8.74;47.22;101615.22;5071415;28;20044;-72
2021/03/09 10:31:55;;;;;;;36.90;19.23;;;;;;;8.47;47.68;101609.22;5070562;28;20136;-73
2021/03/09 10:34:37;;;;;;;34.85;19.08;;;;;;;8.49;48.63;101601.53;5054207;28;20052;-69
2021/03/09 10:37:06;;;;;;;36.35;20.58;;;;;;;8.47;48.77;101608.44;5071697;28;20044;-66
2021/03/09 10:39:35;;;;;;;39.28;22.15;;;;;;;8.82;48.38;101611.09;5071714;28;20055;-76
2021/03/09 10:42:28;;;;;;;35.47;22.03;;;;;;;8.47;49.20;101606.50;5071343;28;20048;-66
2021/03/09 10:44:57;;;;;;;42.78;24.08;;;;;;;8.89;48.90;101604.16;5071513;28;20291;-75
2021/03/09 10:47:24;;;;;;;41.70;24.30;;;;;;;8.43;49.99;101604.59;5070188;28;20047;-74
2021/03/09 10:49:51;;;;;;;37.92;22.75;;;;;;;8.62;50.29;101602.91;5072294;28;20063;-72
2021/03/09 10:52:18;;;;;;;45.10;24.67;;;;;;;8.93;49.40;101602.53;5072469;28;20056;-73
2021/03/09 10:55:03;;;;;;;46.38;25.50;;;;;;;8.63;49.87;101597.13;5072494;28;20037;-75
2021/03/09 10:57:31;;;;;;;44.42;24.73;;;;;;;8.38;50.62;101599.13;5072415;28;20057;-64
2021/03/09 10:59:58;;;;;;;39.28;23.13;;;;;;;8.76;50.44;101595.72;5054753;28;20055;-65
2021/03/09 11:02:25;;;;;;;40.05;23.40;;;;;;;9.18;48.79;101595.25;5072036;28;20047;-72
2021/03/09 11:04:52;;;;;;;44.58;25.50;;;;;;;9.23;49.86;101585.06;5073291;28;20052;-73
2021/03/09 11:07:19;;;;;;;45.85;26.13;;;;;;;9.36;48.54;101589.13;5036527;28;20380;-66
2021/03/09 11:09:49;;;;;;;47.63;26.25;;;;;;;9.08;49.16;101585.16;5071419;28;20040;-75
2021/03/09 11:12:16;;;;;;;41.75;25.75;;;;;;;9.21;48.55;101587.28;5055126;28;20040;-68
2021/03/09 11:14:46;;;;;;;42.75;26.48;;;;;;;9.11;49.08;101590.06;5073060;28;20040;-66
2021/03/09 11:17:16;;;;;;;;;;;;;;;8.99;49.32;101584.91;5072782;28;20053;-64
2021/03/09 11:19:43;;;;;;;48.08;26.80;;;;;;;8.91;49.30;101590.97;5057488;28;20359;-67
2021/03/09 11:22:12;;;;;;;44.50;26.40;;;;;;;9.02;49.37;101578.03;5074894;28;20055;-70
2021/03/09 11:24:42;;;;;;;44.88;26.73;;;;;;;9.05;49.23;101571.94;5058520;28;20074;-72
2021/03/09 11:27:14;;;;;;;46.60;26.98;;;;;;;9.45;48.89;101577.22;5074756;28;20048;-73
2021/03/09 11:29:41;;;;;;;45.67;28.23;;;;;;;9.66;48.59;101567.72;5091752;28;20075;-72
2021/03/09 11:32:09;;;;;;;42.13;26.08;;;;;;;9.98;47.79;101578.19;5073581;28;20054;-69
2021/03/09 11:34:55;;;;;;;46.35;27.48;;;;;;;10.05;47.33;101575.94;5092550;28;20059;-77
2021/03/09 11:37:22;;;;;;;47.85;29.15;;;;;;;9.74;48.49;101569.88;5093472;28;20055;-75
2021/03/09 11:39:52;;;;;;;46.38;29.27;;;;;;;9.77;48.45;101580.31;5095855;28;20069;-69
2021/03/09 11:42:23;;;;;;;48.80;28.92;;;;;;;9.77;48.82;101580.31;5095947;28;20370;-71
2021/03/09 11:44:51;;;;;;;42.33;26.20;;;;;;;10.07;48.41;101571.78;5100507;28;20078;-73
2021/03/09 11:47:23;;;;;;;43.60;28.67;;;;;;;9.98;48.16;101573.53;5096128;28;20040;-72
2021/03/09 11:49:51;;;;;;;44.53;27.17;;;;;;;10.37;48.35;101567.97;5094138;28;20474;-73
2021/03/09 11:52:19;;;;;;;46.22;26.95;;;;;;;10.30;46.73;101570.22;5095319;28;20048;-73
2021/03/09 11:54:46;;;;;;;45.13;28.27;;;;;;;10.21;47.38;101563.72;5111626;28;20524;-68
2021/03/09 11:57:16;;;;;;;39.35;25.85;;;;;;;9.78;48.38;101568.19;5095720;28;20052;-81
2021/03/09 11:59:44;;;;;;;41.92;27.25;;;;;;;10.26;47.50;101563.66;5094609;28;20113;-64
2021/03/09 12:02:15;;;;;;;43.15;26.80;;;;;;;10.30;47.43;101561.97;5076300;28;20517;-69
2021/03/09 12:04:45;;;;;;;42.88;26.35;;;;;;;10.16;47.37;101556.31;5076337;28;20522;-71
2021/03/09 12:07:16;;;;;;;39.85;25.33;;;;;;;10.56;46.40;101557.00;5077068;28;20040;-71
2021/03/09 12:09:42;;;;;;;35.70;22.83;;;;;;;10.14;46.63;101552.22;5093631;28;20048;-72
2021/03/09 12:12:10;;;;;;;36.63;23.38;;;;;;;10.05;46.89;101549.25;5093709;28;20075;-73